Latest Weather Observations for Maria Island

IDT60801

Issued at 7:12 pm EDT Sunday 29 March 2020 (issued every 10 minutes, with the page automatically refreshed every 10 minutes)

About weather observations | Map of weather stations | Latest weather observations for TAS | Other Formats
Station Details ID: 092124 Name: MARIA ISLAND (POINT LESUEUR) Lat: -42.66 Lon: 148.02 Height: 28.0 m
Data from the previous 72 hours. | See also: Recent months at Maria Island
Date/Time
EDT
Temp
°C
App
Temp
°C
Dew
Point
°C
Rel
Hum
%
Delta-T
°C
Wind Press
QNH
hPa
Press
MSL
hPa
Rain since
9am
mm
Dir  Spd
km/h
Gust
km/h
Spd
kts
Gust
kts
29/07:00pm 17.0 14.3 14.5 85 1.4 NNE 22 26 12 14 1007.4 1007.3 2.2
29/06:30pm 17.6 13.3 14.3 81 1.9 NNW 30 35 16 19 1007.9 1007.8 1.4
29/06:00pm 18.1 17.1 15.7 86 1.4 N 15 19 8 10 1007.6 1007.5 1.0
29/05:30pm 18.6 16.0 15.8 84 1.7 N 24 28 13 15 1007.2 1007.1 0.0
29/05:00pm 18.8 13.9 15.3 80 2.1 N 35 43 19 23 1006.8 1006.7 0.0
29/04:30pm 20.1 15.0 14.9 72 3.1 N 35 41 19 22 1006.5 1006.4 0.0
29/04:00pm 20.3 15.5 15.5 74 2.9 N 35 39 19 21 1006.7 1006.6 0.0
29/03:30pm 20.4 15.3 14.7 70 3.3 N 35 41 19 22 1007.0 1006.9 0.0
29/03:00pm 20.2 16.4 15.8 76 2.6 N 30 37 16 20 1007.4 1007.3 0.0
29/02:30pm 21.2 18.1 15.5 70 3.4 N 26 32 14 17 1007.9 1007.8 0.0
29/02:00pm 20.9 16.9 16.1 74 2.9 N 32 37 17 20 1008.3 1008.2 0.0
29/01:30pm 19.8 16.6 16.3 80 2.1 NNW 28 32 15 17 1009.0 1008.9 0.0
29/01:00pm 19.2 14.7 15.5 79 2.2 N 33 43 18 23 1009.6 1009.5 0.0
29/12:30pm 18.5 14.8 15.9 85 1.5 N 30 33 16 18 1010.3 1010.2 0.0
29/12:00pm 17.9 13.9 15.3 85 1.5 N 30 32 16 17 1010.8 1010.7 0.0
29/11:30am 17.5 13.4 14.8 84 1.6 N 30 32 16 17 1011.4 1011.3 0.0
29/11:00am 17.7 13.9 14.6 82 1.8 N 28 32 15 17 1012.0 1011.9 0.0
29/10:30am 18.1 14.3 14.8 81 1.9 N 28 32 15 17 1012.3 1012.2 0.0
29/10:00am 18.0 13.6 15.1 83 1.7 N 32 35 17 19 1012.5 1012.4 0.0
29/09:30am 17.5 13.4 14.8 84 1.6 N 30 33 16 18 1012.7 1012.6 0.0
29/09:00am 16.7 12.3 14.2 85 1.4 N 30 33 16 18 1013.0 1012.9 0.0
29/08:30am 16.7 12.3 14.2 85 1.4 N 30 33 16 18 1013.1 1013.0 0.0
29/08:00am 16.5 11.7 14.0 85 1.4 N 32 35 17 19 1012.8 1012.7 0.0
29/07:30am 16.5 12.1 14.0 85 1.4 N 30 33 16 18 1013.2 1013.1 0.0
29/07:00am 16.5 11.6 13.8 84 1.5 N 32 35 17 19 1013.1 1013.0 0.0
29/06:30am 16.5 11.9 13.4 82 1.7 N 30 33 16 18 1013.2 1013.1 0.0
29/06:00am 16.5 11.8 13.2 81 1.8 N 30 32 16 17 1013.4 1013.3 0.0
29/05:30am 16.6 12.3 13.1 80 2.0 N 28 33 15 18 1013.7 1013.6 0.0
29/05:00am 16.6 11.2 12.9 79 2.1 N 33 37 18 20 1013.5 1013.4 0.0
29/04:30am 16.8 10.9 12.5 76 2.4 N 35 39 19 21 1013.5 1013.4 0.0
29/04:00am 16.7 10.9 12.8 78 2.2 N 35 41 19 22 1013.9 1013.8 0.0
29/03:30am 16.5 10.5 13.4 82 1.7 N 37 43 20 23 1014.4 1014.3 0.0
29/03:00am 16.6 10.1 14.1 85 1.4 N 41 44 22 24 1014.6 1014.5 0.0
29/02:30am 17.0 9.9 14.1 83 1.7 N 44 50 24 27 1014.7 1014.6 0.0
29/02:00am 17.5 9.6 13.8 79 2.1 N 48 56 26 30 1014.7 1014.6 0.0
29/01:30am 17.6 10.4 13.7 78 2.2 N 44 54 24 29 1015.3 1015.2 0.0
29/01:00am 17.6 10.5 13.9 79 2.1 N 44 54 24 29 1015.8 1015.8 0.0
29/12:30am 17.7 9.7 13.6 77 2.3 N 48 59 26 32 1015.9 1015.9 0.0
29/12:00am 17.8 10.7 13.3 75 2.5 N 43 54 23 29 1016.3 1016.3 0.0
 
Date/Time
EDT
Temp
°C
App
Temp
°C
Dew
Point
°C
Rel
Hum
%
Delta-T
°C
Wind Press
QNH
hPa
Press
MSL
hPa
Rain since
9am
mm
Dir  Spd
km/h
Gust
km/h
Spd
kts
Gust
kts
28/11:30pm 18.0 9.8 12.9 72 2.9 N 48 57 26 31 1016.4 1016.4 0.0
28/11:00pm 18.2 10.4 13.1 72 2.9 N 46 57 25 31 1016.3 1016.3 0.0
28/10:30pm 17.5 10.7 14.4 82 1.8 N 43 54 23 29 1016.8 1016.8 0.0
28/10:00pm 17.7 10.8 14.4 81 1.9 N 44 50 24 27 1016.8 1016.8 0.0
28/09:30pm 18.1 11.2 14.6 80 2.0 N 44 52 24 28 1017.1 1017.1 0.0
28/09:00pm 17.9 12.7 14.4 80 2.0 N 35 43 19 23 1017.8 1017.8 0.0
28/08:30pm 18.3 12.2 14.2 77 2.4 N 39 46 21 25 1017.8 1017.8 0.0
28/08:00pm 18.8 11.8 14.3 75 2.6 N 44 54 24 29 1017.0 1017.0 0.0
28/07:30pm 18.8 12.0 14.3 75 2.6 N 43 48 23 26 1017.2 1017.2 0.0
28/07:00pm 19.2 13.5 14.2 73 2.9 N 37 44 20 24 1017.1 1017.1 0.0
28/06:30pm 19.2 12.5 14.7 75 2.6 N 43 50 23 27 1016.8 1016.8 0.0
28/06:00pm 19.0 12.3 14.7 76 2.5 N 43 48 23 26 1016.9 1016.9 0.0
28/05:30pm 19.4 13.2 14.9 75 2.6 N 41 46 22 25 1017.0 1017.0 0.0
28/05:00pm 19.3 12.4 14.6 74 2.7 N 44 50 24 27 1016.9 1016.9 0.0
28/04:30pm 20.3 13.8 15.1 72 3.1 N 43 48 23 26 1017.4 1017.4 0.0
28/04:00pm 21.2 17.4 14.8 67 3.8 N 28 37 15 20 1017.8 1017.8 0.0
28/03:30pm 21.4 16.1 14.3 64 4.1 N 35 44 19 24 1017.9 1017.9 0.0
28/03:00pm 21.5 15.1 14.4 64 4.1 N 41 50 22 27 1018.0 1018.0 0.0
28/02:30pm 21.4 15.7 14.1 63 4.3 N 37 46 20 25 1018.4 1018.4 0.0
28/02:00pm 21.5 15.4 14.2 63 4.3 N 39 48 21 26 1018.8 1018.8 0.0
28/01:30pm 21.8 15.7 14.2 62 4.4 N 39 46 21 25 1019.4 1019.4 0.0
28/01:00pm 20.8 14.2 13.7 64 4.1 N 41 46 22 25 1019.7 1019.7 0.0
28/12:30pm 20.8 14.3 13.0 61 4.4 N 39 48 21 26 1020.0 1020.0 0.0
28/12:00pm 20.1 13.8 13.6 66 3.7 N 39 46 21 25 1020.4 1020.4 0.0
28/11:30am 18.8 13.1 14.1 74 2.7 N 37 43 20 23 1021.0 1021.0 0.0
28/11:00am 17.6 12.4 14.5 82 1.8 N 35 39 19 21 1021.5 1021.5 0.0
28/10:30am 17.2 13.1 14.8 86 1.4 N 30 35 16 19 1022.0 1022.0 0.0
28/10:00am 16.6 13.1 14.6 88 1.1 N 26 32 14 17 1022.2 1022.2 0.0
28/09:30am 16.4 12.3 14.8 90 0.9 N 30 35 16 19 1022.4 1022.4 0.0
28/09:00am 15.8 12.2 14.3 91 0.9 N 26 30 14 16 1022.3 1022.3 0.0
28/08:30am 15.3 10.8 13.8 91 0.8 N 30 35 16 19 1022.3 1022.3 0.0
28/08:00am 15.0 10.4 13.5 91 0.8 N 30 32 16 17 1022.3 1022.3 0.0
28/07:30am 14.7 10.8 13.2 91 0.8 N 26 30 14 16 1022.5 1022.5 0.0
28/07:00am 14.4 10.8 13.0 91 0.8 N 24 28 13 15 1022.5 1022.5 0.0
28/06:30am 14.0 11.3 12.9 93 0.6 N 19 24 10 13 1022.7 1022.7 0.0
28/06:00am 13.3 11.1 12.2 93 0.6 NNW 15 17 8 9 1023.0 1023.0 0.0
28/05:30am 13.3 11.1 12.2 93 0.6 NNW 15 17 8 9 1023.1 1023.1 0.0
28/05:00am 13.2 11.8 12.1 93 0.6 NW 11 13 6 7 1023.2 1023.2 0.0
28/04:30am 13.5 11.8 12.4 93 0.6 NNW 13 15 7 8 1023.3 1023.3 0.0
28/04:00am 13.6 12.6 12.3 92 0.7 NW 9 11 5 6 1023.5 1023.5 0.0
28/03:30am 13.8 12.1 12.5 92 0.7 NNW 13 15 7 8 1023.9 1023.9 0.0
28/03:00am 14.1 12.1 12.7 91 0.8 NNW 15 19 8 10 1024.0 1024.0 0.0
28/02:30am 14.7 12.9 13.2 91 0.8 N 15 19 8 10 1024.2 1024.2 0.0
28/02:00am 14.5 12.6 13.0 91 0.8 NW 15 17 8 9 1024.4 1024.4 0.0
28/01:30am 15.0 13.2 13.4 90 0.9 NNW 15 19 8 10 1024.4 1024.4 0.0
28/01:00am 15.4 14.1 13.8 90 0.9 NNW 13 15 7 8 1024.7 1024.7 0.0
28/12:30am 14.3 13.6 12.0 86 1.2 NW 7 9 4 5 1024.8 1024.8 0.0
28/12:00am 15.1 14.1 12.4 84 1.5 NNW 9 13 5 7 1025.0 1025.0 0.0
 
Date/Time
EDT
Temp
°C
App
Temp
°C
Dew
Point
°C
Rel
Hum
%
Delta-T
°C
Wind Press
QNH
hPa
Press
MSL
hPa
Rain since
9am
mm
Dir  Spd
km/h
Gust
km/h
Spd
kts
Gust
kts
27/11:30pm 15.0 14.4 12.3 84 1.5 N 7 9 4 5 1025.2 1025.2 0.0
27/11:00pm 14.8 15.0 11.8 82 1.6 NW 2 2 1 1 1025.4 1025.4 0.0
27/10:30pm 14.5 13.6 11.3 81 1.7 N 7 9 4 5 1025.5 1025.5 0.0
27/10:00pm 14.5 13.5 11.1 80 1.8 NNE 7 13 4 7 1025.7 1025.7 0.0
27/09:30pm 15.3 13.6 11.3 77 2.1 N 11 13 6 7 1025.7 1025.7 0.0
27/09:00pm 15.3 13.9 10.9 75 2.3 N 9 13 5 7 1025.6 1025.6 0.0
27/08:30pm 15.8 12.8 10.6 71 2.8 NNE 17 22 9 12 1025.4 1025.4 0.0
27/08:00pm 15.6 13.2 8.8 64 3.5 NNE 11 19 6 10 1025.2 1025.2 0.0
27/07:30pm 15.7 14.0 8.4 62 3.7 ENE 7 9 4 5 1025.2 1025.2 0.0
27/07:00pm 16.3 14.8 9.3 63 3.6 N 7 13 4 7 1025.1 1025.1 0.0
27/06:30pm 16.5 15.1 9.7 64 3.6 SSE 7 11 4 6 1025.1 1025.1 0.0
27/06:00pm 17.3 16.1 9.7 61 4.0 SE 6 9 3 5 1025.1 1025.1 0.0
27/05:30pm 17.9 16.4 8.5 54 4.8 E 6 13 3 7 1025.0 1025.0 0.0
27/05:00pm 18.1 14.9 8.4 53 5.0 N 15 19 8 10 1025.0 1025.0 0.0
27/04:30pm 18.1 14.7 9.2 56 4.7 N 17 19 9 10 1024.9 1024.9 0.0
27/04:00pm 18.3 14.6 9.4 56 4.7 N 19 20 10 11 1025.2 1025.2 0.0
27/03:30pm 18.4 15.6 10.0 58 4.5 N 15 19 8 10 1025.5 1025.5 0.0
27/03:00pm 18.6 16.1 9.7 56 4.7 N 13 17 7 9 1025.7 1025.7 0.0
27/02:30pm 18.1 16.1 10.2 60 4.2 N 11 17 6 9 1025.8 1025.8 0.0
27/02:00pm 17.8 15.6 10.7 63 3.8 N 13 15 7 8 1026.0 1026.0 0.0
27/01:30pm 18.0 15.9 11.3 65 3.6 N 13 17 7 9 1026.5 1026.5 0.0
27/01:00pm 16.8 14.6 10.9 68 3.1 N 13 15 7 8 1026.8 1026.8 0.0
27/12:30pm 17.0 15.3 9.7 62 3.8 N 9 11 5 6 1027.1 1027.1 0.0
27/12:00pm 16.4 15.3 10.7 69 3.0 N 7 9 4 5 1027.4 1027.4 0.0
27/11:30am 15.7 14.2 10.7 72 2.7 N 9 9 5 5 1027.6 1027.6 0.0
27/11:00am 15.5 14.2 11.3 76 2.2 N 9 11 5 6 1027.8 1027.8 0.0
27/10:30am 14.5 13.1 9.7 73 2.5 N 7 11 4 6 1027.9 1027.9 0.0
27/10:00am 13.9 12.8 9.9 77 2.1 NW 6 7 3 4 1028.0 1028.0 0.0
27/09:30am 13.3 12.2 10.1 81 1.7 NNW 6 9 3 5 1027.8 1027.8 0.0
27/09:00am 12.7 11.3 9.5 81 1.6 NW 7 9 4 5 1027.6 1027.6 0.0
27/08:30am 12.7 11.3 9.7 82 1.5 NNW 7 9 4 5 1027.4 1027.4 0.0
27/08:00am 12.3 11.1 9.5 83 1.4 NW 6 11 3 6 1027.4 1027.4 0.0
27/07:30am 11.9 9.7 9.3 84 1.3 NW 11 13 6 7 1027.1 1027.1 0.0
27/07:00am 11.9 8.8 8.9 82 1.5 NW 15 17 8 9 1027.0 1027.0 0.0
27/06:30am 12.1 9.9 9.3 83 1.4 WNW 11 15 6 8 1026.8 1026.8 0.0
27/06:00am 12.3 9.3 9.3 82 1.5 WNW 15 19 8 10 1026.6 1026.6 0.0
27/05:30am 12.6 10.0 9.2 80 1.7 WNW 13 17 7 9 1026.7 1026.7 0.0
27/05:00am 12.2 9.9 9.0 81 1.6 WNW 11 13 6 7 1026.7 1026.7 0.0
27/04:30am 12.3 10.0 9.0 80 1.7 W 11 13 6 7 1026.6 1026.6 0.0
27/04:00am 12.8 9.8 9.1 78 1.9 NW 15 17 8 9 1026.5 1026.5 0.0
27/03:30am 12.6 9.9 9.1 79 1.8 NW 13 15 7 8 1026.7 1026.7 0.0
27/03:00am 12.5 10.2 9.0 79 1.7 NW 11 13 6 7 1026.9 1026.9 0.0
27/02:30am 12.4 9.6 8.5 77 1.9 WNW 13 15 7 8 1027.1 1027.1 0.0
27/02:00am 12.6 9.5 8.9 78 1.8 NW 15 17 8 9 1027.1 1027.1 0.0
27/01:30am 12.9 9.5 9.0 77 2.0 NW 17 20 9 11 1027.0 1027.0 0.0
27/01:00am 13.8 8.8 9.6 76 2.1 N 26 30 14 16 1026.9 1026.9 0.0
27/12:30am 13.8 8.3 9.3 74 2.3 N 28 32 15 17 1027.0 1027.0 0.0
27/12:00am 14.0 8.1 9.0 72 2.5 N 30 33 16 18 1027.2 1027.2 0.0
 
Date/Time
EDT
Temp
°C
App
Temp
°C
Dew
Point
°C
Rel
Hum
%
Delta-T
°C
Wind Press
QNH
hPa
Press
MSL
hPa
Rain since
9am
mm
Dir  Spd
km/h
Gust
km/h
Spd
kts
Gust
kts
26/11:30pm 14.0 9.4 9.6 75 2.3 N 24 30 13 16 1027.4 1027.4 0.0
26/11:00pm 13.9 9.9 9.1 73 2.4 NNW 20 24 11 13 1027.8 1027.8 0.0
26/10:30pm 14.2 7.9 9.0 71 2.6 N 32 35 17 19 1027.7 1027.7 0.0
26/10:00pm 14.4 8.1 8.8 69 2.8 N 32 37 17 20 1027.7 1027.7 0.0
26/09:30pm 14.4 7.8 8.4 67 3.0 N 33 37 18 20 1027.8 1027.8 0.0
26/09:00pm 14.3 7.8 8.3 67 3.0 N 32 37 17 20 1027.6 1027.6 0.0
26/08:30pm 14.3 8.4 7.4 63 3.4 N 28 35 15 19 1027.4 1027.4 0.0
26/08:00pm 14.0 9.1 6.8 62 3.5 N 22 28 12 15 1027.4 1027.4 0.0
26/07:30pm 14.0 9.4 6.4 60 3.7 N 20 24 11 13 1027.4 1027.4 0.0

Other formats

Comma delimited format used in spreadsheet applications
http://www.bom.gov.au/fwo/IDT60801/IDT60801.95988.axf

JavaScript Object Notation format (JSON) in row-major order
http://www.bom.gov.au/fwo/IDT60801/IDT60801.95988.json

Data quality

Most of these data are generated automatically and are frequently updated. Quality checks on data are not normally performed. It is possible for incorrect values to appear. Refer to information at About Latest Weather Observations and please check the disclaimer before using these data.